Flight Track Log - Related Links

Times and Time Zones

All times are in EDT time to prevent confusion due to time zone crossing. See the FLG3595 flight status page for this flight to view local times or setup timezone preferences in your user account.

Time Position Orientation Groundspeed Altitude Reporting Facility
EDT Latitude Longitude Course Direction KTS MPH feet Rate Location/Type
Sat 09:21:35 AM 41.5300 -93.6336 131° Southeast 144 166 1,700  Level Minneapolis Center
Sat 09:22:12 AM 41.5086 -93.6008 131° Southeast 187 215 2,900 1,768 Climbing Minneapolis Center
Sat 09:23:10 AM 41.5017 -93.5339 98° East 232 267 4,500 2,067 Climbing Minneapolis Center
Sat 09:24:11 AM 41.5292 -93.4364 69° East 279 321 7,000 2,557 Climbing Minneapolis Center
Sat 09:25:12 AM 41.5664 -93.3256 66° East 303 349 9,700 1,951 Climbing Minneapolis Center
Sat 09:26:14 AM 41.5956 -93.2397 66° East 306 352 11,000 1,707 Climbing Minneapolis Center
Sat 09:27:15 AM 41.6442 -93.0958 66° East 343 395 13,200 1,967 Climbing Minneapolis Center
Sat 09:28:16 AM 41.6858 -92.9658 67° East 370 426 15,000 1,623 Climbing Minneapolis Center
Sat 09:29:17 AM 41.7300 -92.8350 66° East 381 438 16,500 1,426 Climbing Minneapolis Center
Sat 09:30:18 AM 41.7769 -92.6922 66° East 395 455 17,900 1,426 Climbing Minneapolis Center
Sat 09:31:19 AM 41.8242 -92.5517 66° East 409 471 19,400 1,475 Climbing Minneapolis Center
Sat 09:32:20 AM 41.8700 -92.4089 67° East 415 478 20,900 1,366 Climbing Minneapolis Center
Sat 09:33:22 AM 41.9158 -92.2675 66° East 416 479 22,200 1,220 Climbing Minneapolis Center
Sat 09:34:23 AM 41.9619 -92.1228 67° East 420 483 23,400 934 Climbing Minneapolis Center
Sat 09:35:24 AM 42.0092 -91.9761 67° East 426 490 24,100 738 Climbing Minneapolis Center
Sat 09:36:25 AM 42.0578 -91.8244 67° East 438 504 24,900 885 Climbing Minneapolis Center
Sat 09:37:26 AM 42.1153 -91.6389 67° East 448 516 25,900 878 Climbing Minneapolis Center
Sat 09:38:28 AM 42.1639 -91.4819 67° East 455 524 26,700 780 Climbing Minneapolis Center
Sat 09:39:29 AM 42.2128 -91.3267 67° East 456 525 27,500 885 Climbing Minneapolis Center
Sat 09:40:30 AM 42.2592 -91.1708 68° East 456 525 28,500 1,055 Climbing Minneapolis Center
Sat 09:41:00 AM 42.2894 -91.0744 67° East 457 526 29,100 1,043 Climbing Chicago Center
Sat 09:42:02 AM 42.3372 -90.9169 68° East 457 526 30,100 919 Climbing Chicago Center
Sat 09:43:04 AM 42.3861 -90.7622 67° East 456 525 31,000 439 Climbing Chicago Center
Sat 09:44:05 AM 42.4294 -90.6097 69° East 450 518 31,000  Level Chicago Center
Sat 09:45:07 AM 42.4786 -90.4483 68° East 470 541 31,000  Level Chicago Center
Sat 09:46:09 AM 42.5389 -90.2503 67° East 477 549 31,000  Level Chicago Center
Sat 09:47:11 AM 42.5906 -90.0831 67° East 486 559 31,000  Level Chicago Center
Sat 09:48:12 AM 42.6439 -89.9050 68° East 493 567 31,000  Level Chicago Center
Sat 09:49:14 AM 42.6944 -89.7358 68° East 487 560 31,000  Level Chicago Center
Sat 09:50:16 AM 42.7453 -89.5644 68° East 492 566 31,000  Level Chicago Center
Sat 09:51:18 AM 42.7972 -89.3933 67° East 493 567 31,000  Level Chicago Center
Sat 09:52:19 AM 42.8469 -89.2211 68° East 491 565 31,000  Level Chicago Center
Sat 09:53:21 AM 42.8969 -89.0547 68° East 481 554 31,000  Level Chicago Center
Sat 09:54:23 AM 42.9558 -88.8517 68° East 481 554 31,000  Level Chicago Center
Sat 09:55:24 AM 42.9892 -88.6711 76° East 486 559 31,000  Level Chicago Center
Sat 09:56:26 AM 43.0167 -88.4903 78° East 487 560 31,000  Level Chicago Center
Sat 09:57:28 AM 43.0453 -88.3078 78° East 495 570 31,000  Level Chicago Center
Sat 09:58:30 AM 43.0742 -88.1278 78° East 493 567 31,000  Level Chicago Center
Sat 09:59:31 AM 43.1072 -87.9100 78° East 492 566 31,000  Level Chicago Center
Sat 10:01:35 AM 43.1619 -87.5456 80° East 493 567 31,000  Level Chicago Center
Sat 10:02:37 AM 43.1911 -87.3517 78° East 492 566 31,000  Level Chicago Center
Sat 10:03:38 AM 43.2172 -87.1689 79° East 490 564 31,000  Level Chicago Center
Sat 10:04:40 AM 43.2447 -86.9867 78° East 490 564 31,000  Level Chicago Center
Sat 10:05:42 AM 43.2706 -86.8053 79° East 488 562 31,000  Level Chicago Center
Sat 10:06:43 AM 43.2942 -86.6217 80° East 487 560 31,000  Level Chicago Center
Sat 10:07:45 AM 43.2878 -86.4264 93° East 506 582 31,000  Level Chicago Center
Sat 10:08:47 AM 43.2822 -86.2317 92° East 506 582 31,000  Level Chicago Center
Sat 10:09:49 AM 43.2764 -86.0342 92° East 510 587 31,000 -780 Level Chicago Center
Sat 10:10:50 AM 43.2700 -85.8342 92° East 511 588 29,400 -2,098 Descending Chicago Center
Sat 10:11:52 AM 43.2619 -85.6008 93° East 509 586 26,700 -2,323 Descending Chicago Center
Sat 10:12:54 AM 43.2558 -85.4131 92° East 496 571 24,600 -1,805 Descending Chicago Center
Sat 10:13:55 AM 43.2475 -85.2297 94° East 486 559 23,000 -780 Descending Chicago Center
Sat 10:14:57 AM 43.2158 -85.0511 104° East 480 552 23,000  Level Chicago Center
Sat 10:15:59 AM 43.1831 -84.8711 104° East 484 557 23,000  Level Chicago Center
Sat 10:16:30 AM 43.1614 -84.7625 105° East 488 562 23,000  Level Cleveland Center
Sat 10:17:32 AM 43.1278 -84.5811 104° East 489 563 23,000 -261 Level Cleveland Center
Sat 10:18:02 AM 43.1153 -84.5089 103° East 489 563 22,600 -1,645 Descending Chicago Center
Sat 10:18:34 AM 43.0939 -84.4008 105° East 489 563 21,300 -2,129 Descending Cleveland Center
Sat 10:19:35 AM 43.0644 -84.2458 105° East 462 532 19,300 -2,195 Descending Cleveland Center
Sat 10:20:37 AM 43.0253 -84.0486 105° East 449 517 16,800 -2,330 Descending Cleveland Center
Sat 10:21:18 AM 43.0014 -83.9319 106° East 446 513 15,300 -2,136 Descending Cleveland Center
Sat 10:21:36 AM 42.9928 -83.8850 104° East 439 505 14,700 -1,975 Descending Cleveland Center
Sat 10:22:37 AM 42.9108 -83.7814 137° Southeast 400 460 12,700 -1,328 Descending Cleveland Center
Sat 10:23:38 AM 42.8089 -83.7206 156° South 388 447 12,000 -393 Descending Cleveland Center
Sat 10:24:39 AM 42.7131 -83.6608 155° Southeast 382 440 11,900  Descending Cleveland Center
Sat 10:25:45 AM 42.6281 -83.6108 157° South 354 407 12,000 49 Climbing Cleveland Center
Sat 10:26:41 AM 42.5367 -83.5586 157° South 345 397 12,000 -51 Level Cleveland Center
Sat 10:27:42 AM 42.4547 -83.5100 156° South 308 354 11,900  Descending Cleveland Center
Sat 10:28:43 AM 42.3753 -83.4814 165° South 262 302 12,000 -323 Climbing Cleveland Center
Sat 10:29:52 AM 42.2981 -83.4606 169° South 263 303 11,200 -1,033 Descending Cleveland Center
Sat 10:30:45 AM 42.2397 -83.4733 189° South 196 226 9,900 -1,368 Descending Cleveland Center
Sat 10:31:46 AM 42.1869 -83.5053 204° Southwest 199 229 8,600 -1,279 Descending Cleveland Center
Sat 10:32:47 AM 42.1453 -83.5528 220° Southwest 198 228 7,300 -1,099 Descending Cleveland Center
Sat 10:32:57 AM 42.1428 -83.5553 217° Southwest 195 224 7,300 -1,268 Level Cleveland Center
Sat 10:33:58 AM 42.1008 -83.6069 222° Southwest 192 221 5,800 -1,232 Descending Cleveland Center
Sat 10:34:49 AM 42.0708 -83.6461 224° Southwest 183 211 5,000 -677 Descending Cleveland Center
Sat 10:35:00 AM 42.0628 -83.6536 215° Southwest 188 216 5,100  Climbing Cleveland Center
Sat 10:35:50 AM 42.0200 -83.6783 203° Southwest 226 260 5,000  Descending Cleveland Center
Sat 10:36:02 AM 42.0156 -83.6728 137° Southeast 215 247 5,100  Climbing Cleveland Center
Sat 10:36:46 AM 41.9858 -83.6086 122° Southeast 249 287 5,000 -98 Descending Cleveland Center
Sat 10:37:03 AM 41.9844 -83.5944 98° East 241 277 5,000  Level Cleveland Center
Sat 10:37:47 AM 42.0103 -83.5364 59° Northeast 209 241 5,000  Level Cleveland Center
Sat 10:38:05 AM 42.0194 -83.5181 56° Northeast 216 249 5,000 -689 Level Cleveland Center
Sat 10:38:48 AM 42.0539 -83.4892 32° Northeast 182 209 4,300 -677 Descending Cleveland Center
Sat 10:39:07 AM 42.0583 -83.4864 25° Northeast 201 231 4,300 -1,082 Level Cleveland Center
Sat 10:39:49 AM 42.0983 -83.4589 27° Northeast 191 220 3,200 -1,279 Descending Cleveland Center
Sat 10:40:08 AM 42.1125 -83.4481 30° Northeast 186 214 3,000 -971 Descending Cleveland Center
Sat 10:40:57 AM 42.1436 -83.4147 38° Northeast 153 176 2,100 -871 Descending Cleveland Center
Sat 10:41:10 AM 42.1492 -83.4106 29° Northeast 175 201 2,100 -720 Level Cleveland Center
Sat 10:42:12 AM 42.1822 -83.3847 30° Northeast 152 175 1,200 -581 Descending Cleveland Center
Sat 10:43:14 AM 42.2147 -83.3622 27° Northeast 147 169 900 -290 Descending Cleveland Center

Login

Don't have an account? Register now (free) for customized features, flight alerts, and more!